createdAt,value
2018-03-18T00:00:47.682Z,932.67
2018-03-18T00:01:47.676Z,932.65
2018-03-18T00:02:47.676Z,932.66
2018-03-18T00:03:47.671Z,932.69
2018-03-18T00:04:47.659Z,932.69
2018-03-18T00:05:47.654Z,932.75
2018-03-18T00:06:47.656Z,932.76
2018-03-18T00:07:47.645Z,932.78
2018-03-18T00:08:47.640Z,932.79
2018-03-18T00:09:47.639Z,932.77
2018-03-18T00:10:47.638Z,932.82
2018-03-18T00:11:47.628Z,932.81
2018-03-18T00:12:47.626Z,932.81
2018-03-18T00:13:47.615Z,932.86
2018-03-18T00:14:47.617Z,932.84
2018-03-18T00:15:47.621Z,932.83
2018-03-18T00:16:47.607Z,932.81
2018-03-18T00:17:47.604Z,932.81
2018-03-18T00:18:47.597Z,932.80
2018-03-18T00:19:47.591Z,932.81
2018-03-18T00:20:47.589Z,932.82
2018-03-18T00:21:47.580Z,932.84
2018-03-18T00:22:47.575Z,932.87
2018-03-18T00:23:47.570Z,932.88
2018-03-18T00:24:47.565Z,932.83
2018-03-18T00:25:47.560Z,932.80
2018-03-18T00:26:47.555Z,932.83
2018-03-18T00:27:47.550Z,932.81
2018-03-18T00:28:47.544Z,932.80
2018-03-18T00:29:47.540Z,932.74
2018-03-18T00:30:47.530Z,932.75
2018-03-18T00:31:47.530Z,932.77
2018-03-18T00:32:47.521Z,932.81
2018-03-18T00:33:47.516Z,932.81
2018-03-18T00:34:47.515Z,932.80
2018-03-18T00:35:47.510Z,932.80
2018-03-18T00:36:47.501Z,932.80
2018-03-18T00:37:47.500Z,932.77
2018-03-18T00:38:47.496Z,932.79
2018-03-18T00:39:47.492Z,932.80
2018-03-18T00:40:47.483Z,932.80
2018-03-18T00:41:47.481Z,932.76
2018-03-18T00:42:47.476Z,932.79
2018-03-18T00:43:47.471Z,932.75
2018-03-18T00:44:47.465Z,932.78
2018-03-18T00:45:47.457Z,932.75
2018-03-18T00:46:47.456Z,932.70
2018-03-18T00:47:47.451Z,932.65
2018-03-18T00:48:47.446Z,932.66
2018-03-18T00:49:47.437Z,932.66
2018-03-18T00:50:47.437Z,932.66
2018-03-18T00:51:47.433Z,932.71
2018-03-18T00:52:47.423Z,932.74
2018-03-18T00:53:47.422Z,932.74
2018-03-18T00:54:47.422Z,932.76
2018-03-18T00:55:47.413Z,932.76
2018-03-18T00:56:47.407Z,932.79
2018-03-18T00:57:47.398Z,932.81
2018-03-18T00:58:47.399Z,932.83
2018-03-18T00:59:47.393Z,932.81
2018-03-18T01:00:47.390Z,932.84
2018-03-18T01:01:47.385Z,932.83
2018-03-18T01:02:47.379Z,932.82
2018-03-18T01:03:47.370Z,932.80
2018-03-18T01:04:47.364Z,932.84
2018-03-18T01:05:47.366Z,932.78
2018-03-18T01:06:47.357Z,932.81
2018-03-18T01:07:47.352Z,932.81
2018-03-18T01:08:47.344Z,932.83
2018-03-18T01:09:47.344Z,932.81
2018-03-18T01:10:47.338Z,932.84
2018-03-18T01:11:47.332Z,932.80
2018-03-18T01:12:47.334Z,932.78
2018-03-18T01:13:47.327Z,932.76
2018-03-18T01:14:47.320Z,932.76
2018-03-18T01:15:47.313Z,932.76
2018-03-18T01:16:47.313Z,932.76
2018-03-18T01:17:47.301Z,932.78
2018-03-18T01:18:47.297Z,932.76
2018-03-18T01:19:47.294Z,932.78
2018-03-18T01:20:47.293Z,932.85
2018-03-18T01:21:47.285Z,932.82
2018-03-18T01:22:47.277Z,932.81
2018-03-18T01:23:47.276Z,932.83
2018-03-18T01:24:47.267Z,932.85
2018-03-18T01:25:47.264Z,932.80
2018-03-18T01:26:47.264Z,932.83
2018-03-18T01:27:47.253Z,932.80
2018-03-18T01:28:47.250Z,932.75
2018-03-18T01:29:47.249Z,932.76
2018-03-18T01:30:47.238Z,932.75
2018-03-18T01:31:47.239Z,932.76
2018-03-18T01:32:47.240Z,932.76
2018-03-18T01:33:47.225Z,932.74
2018-03-18T01:34:47.221Z,932.77
2018-03-18T01:35:47.220Z,932.75
2018-03-18T01:36:47.193Z,932.71
2018-03-18T01:37:47.188Z,932.74
2018-03-18T01:38:47.201Z,932.73
2018-03-18T01:39:47.197Z,932.74
2018-03-18T01:40:47.190Z,932.74
2018-03-18T01:41:47.194Z,932.75
2018-03-18T01:42:47.164Z,932.75
2018-03-18T01:43:47.181Z,932.81
2018-03-18T01:44:47.177Z,932.80
2018-03-18T01:45:47.148Z,932.84
2018-03-18T01:46:47.144Z,932.82
2018-03-18T01:47:47.138Z,932.82
2018-03-18T01:48:47.152Z,932.85
2018-03-18T01:49:47.147Z,932.83
2018-03-18T01:50:47.123Z,932.85
2018-03-18T01:51:47.124Z,932.80
2018-03-18T01:52:47.130Z,932.80
2018-03-18T01:53:47.108Z,932.83
2018-03-18T01:54:47.121Z,932.81
2018-03-18T01:55:47.102Z,932.80
2018-03-18T01:56:47.114Z,932.82
2018-03-18T01:57:47.110Z,932.83
2018-03-18T01:58:47.105Z,932.85
2018-03-18T01:59:47.096Z,932.84
2018-03-18T02:00:47.091Z,932.86
2018-03-18T02:01:47.074Z,932.89
2018-03-18T02:02:47.064Z,932.87
2018-03-18T02:03:47.076Z,932.87
2018-03-18T02:04:47.072Z,932.90
2018-03-18T02:05:47.048Z,932.90
2018-03-18T02:06:47.044Z,932.93
2018-03-18T02:07:47.039Z,932.92
2018-03-18T02:08:47.053Z,932.95
2018-03-18T02:09:47.028Z,932.96
2018-03-18T02:10:47.041Z,933.01
2018-03-18T02:11:47.041Z,933.01
2018-03-18T02:12:47.031Z,933.00
2018-03-18T02:13:47.008Z,932.99
2018-03-18T02:14:47.021Z,932.97
2018-03-18T02:15:47.001Z,932.98
2018-03-18T02:16:47.021Z,932.98
2018-03-18T02:17:47.012Z,933.00
2018-03-18T02:18:46.984Z,933.02
2018-03-18T02:19:46.985Z,933.07
2018-03-18T02:20:46.991Z,933.05
2018-03-18T02:21:46.986Z,933.04
2018-03-18T02:22:46.982Z,933.07
2018-03-18T02:23:46.963Z,933.07
2018-03-18T02:24:46.970Z,933.06
2018-03-18T02:25:46.969Z,933.05
2018-03-18T02:26:46.945Z,933.04
2018-03-18T02:27:46.943Z,933.04
2018-03-18T02:28:46.936Z,933.06
2018-03-18T02:29:46.932Z,933.00
2018-03-18T02:30:46.924Z,933.04
2018-03-18T02:31:46.937Z,932.99
2018-03-18T02:32:46.916Z,933.00
2018-03-18T02:33:46.909Z,932.95
2018-03-18T02:34:46.922Z,932.91
2018-03-18T02:35:46.923Z,932.91
2018-03-18T02:36:46.911Z,932.88
2018-03-18T02:37:46.904Z,932.90
2018-03-18T02:38:46.899Z,932.84
2018-03-18T02:39:46.895Z,932.86
2018-03-18T02:40:46.896Z,932.85
2018-03-18T02:41:46.883Z,932.84
2018-03-18T02:42:46.885Z,932.84
2018-03-18T02:43:46.876Z,932.87
2018-03-18T02:44:46.872Z,932.90
2018-03-18T02:45:46.865Z,932.93
2018-03-18T02:46:46.858Z,932.91
2018-03-18T02:47:46.856Z,932.91
2018-03-18T02:48:46.849Z,932.92
2018-03-18T02:49:46.843Z,932.91
2018-03-18T02:50:46.841Z,932.93
2018-03-18T02:51:46.833Z,932.93
2018-03-18T02:52:46.829Z,932.90
2018-03-18T02:53:46.826Z,932.90
2018-03-18T02:54:46.819Z,932.92
2018-03-18T02:55:46.818Z,932.88
2018-03-18T02:56:46.810Z,932.83
2018-03-18T02:57:46.803Z,932.84
2018-03-18T02:58:46.800Z,932.82
2018-03-18T02:59:46.797Z,932.80
2018-03-18T03:00:46.794Z,932.81
2018-03-18T03:01:46.785Z,932.82
2018-03-18T03:02:46.778Z,932.79
2018-03-18T03:03:46.777Z,932.81
2018-03-18T03:04:46.767Z,932.82
2018-03-18T03:05:46.764Z,932.85
2018-03-18T03:06:46.760Z,932.85
2018-03-18T03:07:46.764Z,932.85
2018-03-18T03:08:46.795Z,932.83
2018-03-18T03:09:46.744Z,932.84
2018-03-18T03:10:46.741Z,932.80
2018-03-18T03:11:46.736Z,932.79
2018-03-18T03:12:46.725Z,932.78
2018-03-18T03:13:46.723Z,932.79
2018-03-18T03:14:46.717Z,932.75
2018-03-18T03:15:46.711Z,932.76
2018-03-18T03:16:46.705Z,932.73
2018-03-18T03:17:46.704Z,932.72
2018-03-18T03:18:46.694Z,932.70
2018-03-18T03:19:46.689Z,932.72
2018-03-18T03:20:46.682Z,932.68
2018-03-18T03:21:46.676Z,932.75
2018-03-18T03:22:46.679Z,932.76
2018-03-18T03:23:46.666Z,932.74
2018-03-18T03:24:46.667Z,932.76
2018-03-18T03:25:46.663Z,932.72
2018-03-18T03:26:46.655Z,932.72
2018-03-18T03:27:46.650Z,932.73
2018-03-18T03:28:46.646Z,932.74
2018-03-18T03:29:46.636Z,932.71
2018-03-18T03:30:46.635Z,932.68
2018-03-18T03:31:46.628Z,932.72
2018-03-18T03:32:46.623Z,932.73
2018-03-18T03:33:46.613Z,932.67
2018-03-18T03:34:46.608Z,932.71
2018-03-18T03:35:46.603Z,932.66
2018-03-18T03:36:46.601Z,932.66
2018-03-18T03:37:46.599Z,932.62
2018-03-18T03:38:46.591Z,932.64
2018-03-18T03:39:46.689Z,932.60
2018-03-18T03:40:46.580Z,932.56
2018-03-18T03:41:46.575Z,932.56
2018-03-18T03:42:46.572Z,932.54
2018-03-18T03:43:46.546Z,932.54
2018-03-18T03:44:46.540Z,932.51
2018-03-18T03:45:46.536Z,932.48
2018-03-18T03:46:46.533Z,932.51
2018-03-18T03:47:46.529Z,932.52
2018-03-18T03:48:46.519Z,932.49
2018-03-18T03:49:46.536Z,932.48
2018-03-18T03:50:46.512Z,932.49
2018-03-18T03:51:46.527Z,932.48
2018-03-18T03:52:46.499Z,932.50
2018-03-18T03:53:46.512Z,932.49
2018-03-18T03:54:46.488Z,932.49
2018-03-18T03:55:46.483Z,932.47
2018-03-18T03:56:46.491Z,932.46
2018-03-18T03:57:46.487Z,932.42
2018-03-18T03:58:46.482Z,932.41
2018-03-18T03:59:46.464Z,932.40
2018-03-18T04:00:46.470Z,932.42
2018-03-18T04:01:46.450Z,932.39
2018-03-18T04:02:46.446Z,932.33
2018-03-18T04:03:46.460Z,932.30
2018-03-18T04:04:46.446Z,932.29
2018-03-18T04:05:46.448Z,932.29
2018-03-18T04:06:46.443Z,932.24
2018-03-18T04:07:46.436Z,932.25
2018-03-18T04:08:46.413Z,932.19
2018-03-18T04:09:46.407Z,932.19
2018-03-18T04:10:46.407Z,932.18
2018-03-18T04:11:46.409Z,932.14
2018-03-18T04:12:46.410Z,932.15
2018-03-18T04:13:46.390Z,932.12
2018-03-18T04:14:46.398Z,932.13
2018-03-18T04:15:46.398Z,932.07
2018-03-18T04:16:46.369Z,932.12
2018-03-18T04:17:46.382Z,932.13
2018-03-18T04:18:46.359Z,932.10
2018-03-18T04:19:46.372Z,932.06
2018-03-18T04:20:46.348Z,932.10
2018-03-18T04:21:46.348Z,932.07
2018-03-18T04:22:46.342Z,932.04
2018-03-18T04:23:46.349Z,932.01
2018-03-18T04:24:46.339Z,932.02
2018-03-18T04:25:46.338Z,931.98
2018-03-18T04:26:46.315Z,931.94
2018-03-18T04:27:46.332Z,931.95
2018-03-18T04:28:46.307Z,931.92
2018-03-18T04:29:46.302Z,931.93
2018-03-18T04:30:46.315Z,931.91
2018-03-18T04:31:46.292Z,931.87
2018-03-18T04:32:46.304Z,931.90
2018-03-18T04:33:46.281Z,931.91
2018-03-18T04:34:46.293Z,931.91
2018-03-18T04:35:46.266Z,931.90
2018-03-18T04:36:46.282Z,931.90
2018-03-18T04:37:46.276Z,931.86
2018-03-18T04:38:46.272Z,931.86
2018-03-18T04:39:46.245Z,931.80
2018-03-18T04:40:46.241Z,931.81
2018-03-18T04:41:46.237Z,931.79
2018-03-18T04:42:46.231Z,931.80
2018-03-18T04:43:46.245Z,931.79
2018-03-18T04:44:46.257Z,931.78
2018-03-18T04:45:46.212Z,931.80
2018-03-18T04:46:46.210Z,931.79
2018-03-18T04:47:46.205Z,931.74
2018-03-18T04:48:46.194Z,931.74
2018-03-18T04:49:46.211Z,931.75
2018-03-18T04:50:46.202Z,931.74
2018-03-18T04:51:46.196Z,931.74
2018-03-18T04:52:46.194Z,931.72
2018-03-18T04:53:46.185Z,931.71
2018-03-18T04:54:46.193Z,931.69
2018-03-18T04:55:46.182Z,931.72
2018-03-18T04:56:46.173Z,931.69
2018-03-18T04:57:46.168Z,931.62
2018-03-18T04:58:46.162Z,931.66
2018-03-18T04:59:46.153Z,931.62
2018-03-18T05:00:46.151Z,931.65
2018-03-18T05:01:46.145Z,931.58
2018-03-18T05:02:46.136Z,931.59
2018-03-18T05:03:46.130Z,931.55
2018-03-18T05:04:46.129Z,931.52
2018-03-18T05:05:46.123Z,931.53
2018-03-18T05:06:46.114Z,931.49
2018-03-18T05:07:46.113Z,931.51
2018-03-18T05:08:46.106Z,931.51
2018-03-18T05:09:46.097Z,931.54
2018-03-18T05:10:46.096Z,931.55
2018-03-18T05:11:46.090Z,931.55
2018-03-18T05:12:46.089Z,931.54
2018-03-18T05:13:46.078Z,931.62
2018-03-18T05:14:46.070Z,931.55
2018-03-18T05:15:46.068Z,931.57
2018-03-18T05:16:46.065Z,931.55
2018-03-18T05:17:46.052Z,931.59
2018-03-18T05:18:46.047Z,931.57
2018-03-18T05:19:46.042Z,931.58
2018-03-18T05:20:46.039Z,931.53
2018-03-18T05:21:46.037Z,931.55
2018-03-18T05:22:46.024Z,931.53
2018-03-18T05:23:46.019Z,931.54
2018-03-18T05:24:46.018Z,931.48
2018-03-18T05:25:46.012Z,931.47
2018-03-18T05:26:46.002Z,931.47
2018-03-18T05:27:46.096Z,931.42
2018-03-18T05:28:45.994Z,931.42
2018-03-18T05:29:45.989Z,931.38
2018-03-18T05:30:45.987Z,931.39
2018-03-18T05:31:45.973Z,931.37
2018-03-18T05:32:45.967Z,931.39
2018-03-18T05:33:46.063Z,931.33
2018-03-18T05:34:45.961Z,931.37
2018-03-18T05:35:45.955Z,931.35
2018-03-18T05:36:45.945Z,931.30
2018-03-18T05:37:45.944Z,931.31
2018-03-18T05:38:45.938Z,931.31
2018-03-18T05:39:46.029Z,931.26
2018-03-18T05:40:45.922Z,931.24
2018-03-18T05:41:45.917Z,931.24
2018-03-18T05:42:45.916Z,931.20
2018-03-18T05:43:45.906Z,931.25
2018-03-18T05:44:45.903Z,931.23
2018-03-18T05:45:45.994Z,931.20
2018-03-18T05:46:45.894Z,931.20
2018-03-18T05:47:45.883Z,931.20
2018-03-18T05:48:45.877Z,931.15
2018-03-18T05:49:45.873Z,931.19
2018-03-18T05:50:45.866Z,931.17
2018-03-18T05:51:45.858Z,931.18
2018-03-18T05:52:45.852Z,931.20
2018-03-18T05:53:45.849Z,931.17
2018-03-18T05:54:45.847Z,931.15
2018-03-18T05:55:45.841Z,931.12
2018-03-18T05:56:45.831Z,931.09
2018-03-18T05:57:45.823Z,931.11
2018-03-18T05:58:45.818Z,931.11
2018-03-18T05:59:45.813Z,931.13
2018-03-18T06:00:45.806Z,931.12
2018-03-18T06:01:45.805Z,931.14
2018-03-18T06:02:45.799Z,931.12
2018-03-18T06:03:45.789Z,931.16
2018-03-18T06:04:45.787Z,931.11
2018-03-18T06:05:45.783Z,931.11
2018-03-18T06:06:45.779Z,931.14
2018-03-18T06:07:45.773Z,931.15
2018-03-18T06:08:45.764Z,931.15
2018-03-18T06:09:45.757Z,931.12
2018-03-18T06:10:45.751Z,931.09
2018-03-18T06:11:45.744Z,931.12
2018-03-18T06:12:45.741Z,931.12
2018-03-18T06:13:45.736Z,931.13
2018-03-18T06:14:45.728Z,931.07
2018-03-18T06:15:45.728Z,931.12
2018-03-18T06:16:45.717Z,931.06
2018-03-18T06:17:45.713Z,931.05
2018-03-18T06:18:45.708Z,931.04
2018-03-18T06:19:45.698Z,931.04
2018-03-18T06:20:45.694Z,931.05
2018-03-18T06:21:45.686Z,931.04
2018-03-18T06:22:45.680Z,931.03
2018-03-18T06:23:45.675Z,931.07
2018-03-18T06:24:45.690Z,931.03
2018-03-18T06:25:45.665Z,931.01
2018-03-18T06:26:45.658Z,931.00
2018-03-18T06:27:45.652Z,930.96
2018-03-18T06:28:45.646Z,930.93
2018-03-18T06:29:45.641Z,930.92
2018-03-18T06:30:45.634Z,930.89
2018-03-18T06:31:45.629Z,930.89
2018-03-18T06:32:45.622Z,930.88
2018-03-18T06:33:45.717Z,930.86
2018-03-18T06:34:45.611Z,930.81
2018-03-18T06:35:45.606Z,930.83
2018-03-18T06:36:45.600Z,930.78
2018-03-18T06:37:45.593Z,930.74
2018-03-18T06:38:45.588Z,930.73
2018-03-18T06:39:45.583Z,930.69
2018-03-18T06:40:45.576Z,930.69
2018-03-18T06:41:45.610Z,930.69
2018-03-18T06:42:45.560Z,930.64
2018-03-18T06:43:45.558Z,930.66
2018-03-18T06:44:45.553Z,930.64
2018-03-18T06:45:45.542Z,930.64
2018-03-18T06:46:45.543Z,930.64
2018-03-18T06:47:45.535Z,930.64
2018-03-18T06:48:45.530Z,930.68
2018-03-18T06:49:45.524Z,930.69
2018-03-18T06:50:45.513Z,930.70
2018-03-18T06:51:45.513Z,930.71
2018-03-18T06:52:45.492Z,930.72
2018-03-18T06:53:45.529Z,930.71
2018-03-18T06:54:45.475Z,930.74
2018-03-18T06:55:45.490Z,930.70
2018-03-18T06:56:45.479Z,930.72
2018-03-18T06:57:45.456Z,930.70
2018-03-18T06:58:45.457Z,930.68
2018-03-18T06:59:45.467Z,930.72
2018-03-18T07:00:45.461Z,930.73
2018-03-18T07:01:45.457Z,930.75
2018-03-18T07:02:45.434Z,930.73
2018-03-18T07:03:45.447Z,930.76
2018-03-18T07:04:45.421Z,930.74
2018-03-18T07:05:45.416Z,930.74
2018-03-18T07:06:45.411Z,930.77
2018-03-18T07:07:45.419Z,930.76
2018-03-18T07:08:45.400Z,930.76
2018-03-18T07:09:45.412Z,930.78
2018-03-18T07:10:45.412Z,930.78
2018-03-18T07:11:45.418Z,930.79
2018-03-18T07:12:45.370Z,930.78
2018-03-18T07:13:45.371Z,930.79
2018-03-18T07:14:45.378Z,930.74
2018-03-18T07:15:45.456Z,930.73
2018-03-18T07:16:45.372Z,930.77
2018-03-18T07:17:45.340Z,930.79
2018-03-18T07:18:45.338Z,930.82
2018-03-18T07:19:45.342Z,930.82
2018-03-18T07:20:45.326Z,930.81
2018-03-18T07:21:45.335Z,930.76
2018-03-18T07:22:45.318Z,930.78
2018-03-18T07:23:45.328Z,930.80
2018-03-18T07:24:45.323Z,930.77
2018-03-18T07:25:45.311Z,930.75
2018-03-18T07:26:45.311Z,930.75
2018-03-18T07:27:45.305Z,930.75
2018-03-18T07:28:45.296Z,930.77
2018-03-18T07:29:45.290Z,930.82
2018-03-18T07:30:45.277Z,930.79
2018-03-18T07:31:45.271Z,930.79
2018-03-18T07:32:45.270Z,930.82
2018-03-18T07:33:45.256Z,930.79
2018-03-18T07:34:45.262Z,930.74
2018-03-18T07:35:45.245Z,930.78
2018-03-18T07:36:45.237Z,930.78
2018-03-18T07:37:45.240Z,930.80
2018-03-18T07:38:45.270Z,930.77
2018-03-18T07:39:45.222Z,930.81
2018-03-18T07:40:45.223Z,930.79
2018-03-18T07:41:45.210Z,930.80
2018-03-18T07:42:45.213Z,930.82
2018-03-18T07:43:45.219Z,930.80
2018-03-18T07:44:45.189Z,930.83
2018-03-18T07:45:45.190Z,930.81
2018-03-18T07:46:45.188Z,930.84
2018-03-18T07:47:45.178Z,930.83
2018-03-18T07:48:45.176Z,930.83
2018-03-18T07:49:45.169Z,930.84
2018-03-18T07:50:45.158Z,930.82
2018-03-18T07:51:45.146Z,930.87
2018-03-18T07:52:45.147Z,930.86
2018-03-18T07:53:45.139Z,930.88
2018-03-18T07:54:45.133Z,930.89
2018-03-18T07:55:45.128Z,930.91
2018-03-18T07:56:45.105Z,930.91
2018-03-18T07:57:45.098Z,930.95
2018-03-18T07:58:45.092Z,930.99
2018-03-18T07:59:45.102Z,930.98
2018-03-18T08:00:45.079Z,930.99
2018-03-18T08:01:45.074Z,930.97
2018-03-18T08:02:45.083Z,930.97
2018-03-18T08:03:45.162Z,930.95
2018-03-18T08:04:45.055Z,930.92
2018-03-18T08:05:45.049Z,930.97
2018-03-18T08:06:45.043Z,930.94
2018-03-18T08:07:45.040Z,930.92
2018-03-18T08:08:45.030Z,930.91
2018-03-18T08:09:45.039Z,930.97
2018-03-18T08:10:45.028Z,930.92
2018-03-18T08:11:45.029Z,930.95
2018-03-18T08:12:45.005Z,930.97
2018-03-18T08:13:45.014Z,930.96
2018-03-18T08:14:45.002Z,930.96
2018-03-18T08:15:45.002Z,930.95
2018-03-18T08:16:44.979Z,930.94
2018-03-18T08:17:44.976Z,930.95
2018-03-18T08:18:44.978Z,930.93
2018-03-18T08:19:44.977Z,930.93
2018-03-18T08:20:44.957Z,930.95
2018-03-18T08:21:44.964Z,930.97
2018-03-18T08:22:44.963Z,930.96
2018-03-18T08:23:44.937Z,931.00
2018-03-18T08:24:44.945Z,931.01
2018-03-18T08:25:44.924Z,930.97
2018-03-18T08:26:44.937Z,930.98
2018-03-18T08:27:45.012Z,930.92
2018-03-18T08:28:44.924Z,930.95
2018-03-18T08:29:44.912Z,930.96
2018-03-18T08:30:44.912Z,930.90
2018-03-18T08:31:44.908Z,930.93
2018-03-18T08:32:44.899Z,930.89
2018-03-18T08:33:44.894Z,930.90
2018-03-18T08:34:44.885Z,930.90
2018-03-18T08:35:44.881Z,930.91
2018-03-18T08:36:44.872Z,930.96
2018-03-18T08:37:44.873Z,930.93
2018-03-18T08:38:44.861Z,930.94
2018-03-18T08:39:44.847Z,930.95
2018-03-18T08:40:44.840Z,930.98
2018-03-18T08:41:44.839Z,931.00
2018-03-18T08:42:44.839Z,931.03
2018-03-18T08:43:44.825Z,931.03
2018-03-18T08:44:44.821Z,931.04
2018-03-18T08:45:44.809Z,931.11
2018-03-18T08:46:44.822Z,931.10
2018-03-18T08:47:44.803Z,931.09
2018-03-18T08:48:44.799Z,931.12
2018-03-18T08:49:44.785Z,931.14
2018-03-18T08:50:44.778Z,931.18
2018-03-18T08:51:44.782Z,931.18
2018-03-18T08:52:44.773Z,931.23
2018-03-18T08:53:44.767Z,931.20
2018-03-18T08:54:44.753Z,931.23
2018-03-18T08:55:44.750Z,931.20
2018-03-18T08:56:44.752Z,931.20
2018-03-18T08:57:44.744Z,931.20
2018-03-18T08:58:44.736Z,931.20
2018-03-18T08:59:44.733Z,931.20
2018-03-18T09:00:44.726Z,931.22
2018-03-18T09:01:44.720Z,931.21
2018-03-18T09:02:44.714Z,931.23
2018-03-18T09:03:44.708Z,931.19
2018-03-18T09:04:44.701Z,931.20
2018-03-18T09:05:44.691Z,931.22
2018-03-18T09:06:44.688Z,931.20
2018-03-18T09:07:44.687Z,931.23
2018-03-18T09:08:44.672Z,931.25
2018-03-18T09:09:44.669Z,931.22
2018-03-18T09:10:44.664Z,931.22
2018-03-18T09:11:44.661Z,931.24
2018-03-18T09:12:44.651Z,931.22
2018-03-18T09:13:44.640Z,931.27
2018-03-18T09:14:44.639Z,931.23
2018-03-18T09:15:44.633Z,931.21
2018-03-18T09:16:44.627Z,931.21
2018-03-18T09:17:44.635Z,931.15
2018-03-18T09:18:44.609Z,931.15
2018-03-18T09:19:44.608Z,931.16
2018-03-18T09:20:44.601Z,931.15
2018-03-18T09:21:44.595Z,931.17
2018-03-18T09:22:44.590Z,931.14
2018-03-18T09:23:44.582Z,931.16
2018-03-18T09:24:44.575Z,931.12
2018-03-18T09:25:44.565Z,931.13
2018-03-18T09:26:44.564Z,931.15
2018-03-18T09:27:44.657Z,931.15
2018-03-18T09:28:44.552Z,931.14
2018-03-18T09:29:44.545Z,931.17
2018-03-18T09:30:44.533Z,931.22
2018-03-18T09:31:44.532Z,931.19
2018-03-18T09:32:44.521Z,931.24
2018-03-18T09:33:44.618Z,931.29
2018-03-18T09:34:44.509Z,931.33
2018-03-18T09:35:44.506Z,931.33
2018-03-18T09:36:44.501Z,931.37
2018-03-18T09:37:44.493Z,931.37
2018-03-18T09:38:44.485Z,931.37
2018-03-18T09:39:44.481Z,931.35
2018-03-18T09:40:44.478Z,931.37
2018-03-18T09:41:44.472Z,931.35
2018-03-18T09:42:44.576Z,931.40
2018-03-18T09:43:44.459Z,931.37
2018-03-18T09:44:44.453Z,931.40
2018-03-18T09:45:44.430Z,931.39
2018-03-18T09:46:44.420Z,931.41
2018-03-18T09:47:44.436Z,931.43
2018-03-18T09:48:44.428Z,931.43
2018-03-18T09:49:44.422Z,931.42
2018-03-18T09:50:44.399Z,931.41
2018-03-18T09:51:44.392Z,931.40
2018-03-18T09:52:44.399Z,931.42
2018-03-18T09:53:44.379Z,931.43
2018-03-18T09:54:44.370Z,931.45
2018-03-18T09:55:44.364Z,931.44
2018-03-18T09:56:44.364Z,931.44
2018-03-18T09:57:44.373Z,931.46
2018-03-18T09:58:44.349Z,931.43
2018-03-18T09:59:44.362Z,931.47
2018-03-18T10:00:44.336Z,931.44
2018-03-18T10:01:44.349Z,931.46
2018-03-18T10:02:44.343Z,931.44
2018-03-18T10:03:44.319Z,931.44
2018-03-18T10:04:44.331Z,931.41
2018-03-18T10:05:44.322Z,931.41
2018-03-18T10:06:44.322Z,931.43
2018-03-18T10:07:44.291Z,931.44
2018-03-18T10:08:44.289Z,931.44
2018-03-18T10:09:44.282Z,931.44
2018-03-18T10:10:44.292Z,931.48
2018-03-18T10:11:44.283Z,931.50
2018-03-18T10:12:44.280Z,931.50
2018-03-18T10:13:44.259Z,931.53
2018-03-18T10:14:44.269Z,931.54
2018-03-18T10:15:44.419Z,931.54
2018-03-18T10:16:44.256Z,931.57
2018-03-18T10:17:44.254Z,931.56
2018-03-18T10:18:44.245Z,931.55
2018-03-18T10:19:44.239Z,931.55
2018-03-18T10:20:44.232Z,931.54
2018-03-18T10:21:44.227Z,931.56
2018-03-18T10:22:44.221Z,931.60
2018-03-18T10:23:44.216Z,931.59
2018-03-18T10:24:44.209Z,931.62
2018-03-18T10:25:44.199Z,931.59
2018-03-18T10:26:44.188Z,931.59
2018-03-18T10:27:44.192Z,931.60
2018-03-18T10:28:44.181Z,931.61
2018-03-18T10:29:44.175Z,931.60
2018-03-18T10:30:44.174Z,931.66
2018-03-18T10:31:44.168Z,931.67
2018-03-18T10:32:44.152Z,931.71
2018-03-18T10:33:44.164Z,931.71
2018-03-18T10:34:44.146Z,931.72
2018-03-18T10:35:44.144Z,931.74
2018-03-18T10:36:44.128Z,931.74
2018-03-18T10:37:44.129Z,931.79
2018-03-18T10:38:44.127Z,931.77
2018-03-18T10:39:44.121Z,931.74
2018-03-18T10:40:44.115Z,931.79
2018-03-18T10:41:44.106Z,931.78
2018-03-18T10:42:44.094Z,931.79
2018-03-18T10:43:44.099Z,931.79
2018-03-18T10:44:44.082Z,931.81
2018-03-18T10:45:44.084Z,931.80
2018-03-18T10:46:44.077Z,931.78
2018-03-18T10:47:44.071Z,931.79
2018-03-18T10:48:44.098Z,931.81
2018-03-18T10:49:44.063Z,931.79
2018-03-18T10:50:44.048Z,931.81
2018-03-18T10:51:44.053Z,931.84
2018-03-18T10:52:44.043Z,931.87
2018-03-18T10:53:44.032Z,931.85
2018-03-18T10:54:44.032Z,931.90
2018-03-18T10:55:44.031Z,931.89
2018-03-18T10:56:44.015Z,931.89
2018-03-18T10:57:44.110Z,931.92
2018-03-18T10:58:44.010Z,931.90
2018-03-18T10:59:44.033Z,931.91
2018-03-18T11:00:43.993Z,931.94
2018-03-18T11:01:43.988Z,931.93
2018-03-18T11:02:43.983Z,931.92
2018-03-18T11:03:43.978Z,931.90
2018-03-18T11:04:43.981Z,931.90
2018-03-18T11:05:43.976Z,931.91
2018-03-18T11:06:43.962Z,931.94
2018-03-18T11:07:43.962Z,931.91
2018-03-18T11:08:43.951Z,931.88
2018-03-18T11:09:43.946Z,931.86
2018-03-18T11:10:43.941Z,931.89
2018-03-18T11:11:43.937Z,931.90
2018-03-18T11:12:43.936Z,931.88
2018-03-18T11:13:43.935Z,931.85
2018-03-18T11:14:43.927Z,931.88
2018-03-18T11:15:43.930Z,931.82
2018-03-18T11:16:43.925Z,931.81
2018-03-18T11:17:43.906Z,931.80
2018-03-18T11:18:43.929Z,931.79
2018-03-18T11:19:43.903Z,931.86
2018-03-18T11:20:43.892Z,931.86
2018-03-18T11:21:43.887Z,931.90
2018-03-18T11:22:43.882Z,931.87
2018-03-18T11:23:43.883Z,931.89
2018-03-18T11:24:43.877Z,931.90
2018-03-18T11:25:43.876Z,931.92
2018-03-18T11:26:43.862Z,931.94
2018-03-18T11:27:43.867Z,932.01
2018-03-18T11:28:43.858Z,932.00
2018-03-18T11:29:43.857Z,931.99
2018-03-18T11:30:43.852Z,931.99
2018-03-18T11:31:43.859Z,932.06
2018-03-18T11:32:43.836Z,932.02
2018-03-18T11:33:43.836Z,932.01
2018-03-18T11:34:43.827Z,932.03
2018-03-18T11:35:43.859Z,932.02
2018-03-18T11:36:43.813Z,932.05
2018-03-18T11:37:43.817Z,932.09
2018-03-18T11:38:43.814Z,932.12
2018-03-18T11:39:43.801Z,932.11
2018-03-18T11:40:43.798Z,932.10
2018-03-18T11:41:43.794Z,932.12
2018-03-18T11:42:43.775Z,932.16
2018-03-18T11:43:43.786Z,932.15
2018-03-18T11:44:43.763Z,932.15
2018-03-18T11:45:43.774Z,932.15
2018-03-18T11:46:43.750Z,932.17
2018-03-18T11:47:43.761Z,932.11
2018-03-18T11:48:43.739Z,932.13
2018-03-18T11:49:43.739Z,932.13
2018-03-18T11:50:43.734Z,932.13
2018-03-18T11:51:43.731Z,932.16
2018-03-18T11:52:43.738Z,932.16
2018-03-18T11:53:43.734Z,932.16
2018-03-18T11:54:43.729Z,932.15
2018-03-18T11:55:43.724Z,932.16
2018-03-18T11:56:43.693Z,932.13
2018-03-18T11:57:43.710Z,932.12
2018-03-18T11:58:43.705Z,932.08
2018-03-18T11:59:43.686Z,932.09
2018-03-18T12:00:43.699Z,932.07
2018-03-18T12:01:43.691Z,932.03
2018-03-18T12:02:43.675Z,932.05
2018-03-18T12:03:43.682Z,932.05
2018-03-18T12:04:43.677Z,932.05
2018-03-18T12:05:43.659Z,932.03
2018-03-18T12:06:43.655Z,932.04
2018-03-18T12:07:43.667Z,932.07
2018-03-18T12:08:43.658Z,932.02
2018-03-18T12:09:43.657Z,932.04
2018-03-18T12:10:43.645Z,932.03
2018-03-18T12:11:43.654Z,932.03
2018-03-18T12:12:43.643Z,932.05
2018-03-18T12:13:43.630Z,932.03
2018-03-18T12:14:43.631Z,932.09
2018-03-18T12:15:43.611Z,932.05
2018-03-18T12:16:43.621Z,932.03
2018-03-18T12:17:43.604Z,932.01
2018-03-18T12:18:43.612Z,932.02
2018-03-18T12:19:43.608Z,932.06
2018-03-18T12:20:43.582Z,932.08
2018-03-18T12:21:43.585Z,932.12
2018-03-18T12:22:43.589Z,932.09
2018-03-18T12:23:43.574Z,932.09
2018-03-18T12:24:43.568Z,932.10
2018-03-18T12:25:43.580Z,932.09
2018-03-18T12:26:43.571Z,932.11
2018-03-18T12:27:43.576Z,932.08
2018-03-18T12:28:43.570Z,932.11